Thursday, May 25, 2017, 8:24 AM EDT

KJYO, Leesburg / Godfrey

Location: Leesburg, VA, United States Lat: 39.083
Local Time: 8:24 AM EDT (12:24 GMT) Lon: -77.567
Time Zone: US/Eastern Elev: 390 ft

Show me the last for .
Show Decoded

2017-05-25 07:35 METAR KJYO 251135Z AUTO 01004KT 3SM -RA SCT015 SCT023 OVC028 14/14 A2952 RMK AO2
                 P0005 =
2017-05-25 07:15 METAR KJYO 251115Z AUTO 33005KT 2 1/2SM RA SCT005 BKN012 OVC025 14/14 A2953 RMK
                 AO2 P0004 =
2017-05-25 06:55 METAR KJYO 251055Z AUTO 28006KT 4SM RA SCT007 BKN016 OVC024 14/14 A2954 RMK AO2
                 P0010 =
2017-05-25 06:35 METAR KJYO 251035Z AUTO 00000KT 4SM +RA SCT008 BKN021 OVC050 13/13 A2952 RMK AO2
                 P0008 =
2017-05-25 06:15 METAR KJYO 251015Z AUTO 07005KT 4SM RA BKN015 BKN020 OVC050 13/13 A2951 RMK AO2
                 P0002 =
2017-05-25 05:55 METAR KJYO 250955Z AUTO 09005KT 5SM -RA SCT007 BKN015 OVC028 13/13 A2952 RMK AO2
                 P0026 =
2017-05-25 05:35 METAR KJYO 250935Z AUTO 06005KT 2SM +RA OVC005 13/13 A2952 RMK AO2 P0023 =
2017-05-25 05:15 METAR KJYO 250915Z AUTO 08004KT 3SM +RA OVC005 14/14 A2952 RMK AO2 P0008 =
2017-05-25 04:55 METAR KJYO 250855Z AUTO 12009G14KT 090V150 10SM -DZ OVC007 14/14 A2952 RMK AO2
                 P0005 =
2017-05-25 04:35 METAR KJYO 250835Z AUTO 10004KT 5SM -RA OVC007 13/13 A2953 RMK AO2 P0005 =
2017-05-25 04:15 METAR KJYO 250815Z AUTO 12004KT 10SM -RA OVC007 14/14 A2954 RMK AO2 =
2017-05-25 03:55 METAR KJYO 250755Z AUTO 10008KT 7SM -RA OVC007 13/13 A2953 RMK AO2 P0017 =
2017-05-25 03:35 METAR KJYO 250735Z AUTO 11007KT 3SM +RA OVC005 14/14 A2957 RMK AO2 P0012 =
2017-05-25 03:15 METAR KJYO 250715Z AUTO 11006G15KT 7SM RA OVC005 14/14 A2957 RMK AO2 P0001 =
2017-05-25 02:55 METAR KJYO 250655Z AUTO 12009G18KT 7SM -RA OVC005 14/14 A2957 RMK AO2 P0003 =
2017-05-25 02:35 METAR KJYO 250635Z AUTO 10005KT 5SM RA OVC007 14/14 A2959 RMK AO2 P0002 =
2017-05-25 02:15 METAR KJYO 250615Z AUTO 10008G17KT 10SM -RA OVC007 14/14 A2960 RMK AO2 =
2017-05-25 01:55 METAR KJYO 250555Z AUTO 10007G17KT 10SM -RA OVC007 14/14 A2961 RMK AO2 P0002 =
2017-05-25 01:35 METAR KJYO 250535Z AUTO 10006KT 10SM -RA OVC007 14/14 A2962 RMK AO2 P0001 =
2017-05-25 01:15 METAR KJYO 250515Z AUTO 11009G15KT 10SM -RA OVC007 14/14 A2964 RMK AO2 =
2017-05-25 00:55 METAR KJYO 250455Z AUTO 09006KT 10SM -RA OVC005 14/14 A2964 RMK AO2 P0004 =
2017-05-25 00:35 METAR KJYO 250435Z AUTO 11006G15KT 10SM -RA OVC007 15/15 A2966 RMK AO2 P0003 =
2017-05-25 00:15 METAR KJYO 250415Z AUTO 11010G16KT 10SM -RA OVC009 15/15 A2966 RMK AO2 P0002 =
2017-05-24 23:55 METAR KJYO 250355Z AUTO 09005KT 7SM RA OVC011 15/15 A2968 RMK AO2 P0007 =
2017-05-24 23:35 METAR KJYO 250335Z AUTO 12005KT 7SM -RA OVC013 15/15 A2970 RMK AO2 P0003 =
2017-05-24 23:15 METAR KJYO 250315Z AUTO 14005KT 10SM -RA OVC015 16/15 A2970 RMK AO2 =
2017-05-24 22:55 METAR KJYO 250255Z AUTO 12009G15KT 090V150 10SM -DZ OVC017 16/15 A2969 RMK AO2
                 P0006 =
2017-05-24 22:35 METAR KJYO 250235Z AUTO 12007G17KT 5SM RA OVC017 16/15 A2969 RMK AO2 P0005 =
2017-05-24 22:15 METAR KJYO 250215Z AUTO 13012G23KT 10SM BKN021 OVC038 17/14 A2970 RMK AO2 =
2017-05-24 21:55 METAR KJYO 250155Z AUTO 12011G17KT 10SM SCT021 OVC040 17/14 A2970 RMK AO2 =
2017-05-24 21:35 METAR KJYO 250135Z AUTO 12011G18KT 10SM SCT021 OVC040 17/15 A2970 RMK AO2 =
2017-05-24 21:15 METAR KJYO 250115Z AUTO 12010G16KT 10SM SCT022 BKN040 OVC050 17/15 A2970 RMK AO2
                 =
2017-05-24 20:55 METAR KJYO 250055Z AUTO 12013G18KT 10SM BKN022 BKN042 BKN050 17/15 A2969 RMK AO2
                 =
2017-05-24 20:35 METAR KJYO 250035Z AUTO 11007KT 10SM BKN022 BKN042 OVC050 17/15 A2970 RMK AO2 =
2017-05-24 20:15 METAR KJYO 250015Z AUTO 10006KT 10SM OVC020 17/16 A2971 RMK AO2 =
2017-05-24 19:55 METAR KJYO 242355Z AUTO 12007KT 10SM OVC020 17/16 A2971 RMK AO2 =
2017-05-24 19:35 METAR KJYO 242335Z AUTO 11004KT 10SM BKN018 OVC028 17/16 A2971 RMK AO2 =
2017-05-24 19:15 METAR KJYO 242315Z AUTO 12003KT 10SM SCT018 OVC026 17/16 A2971 RMK AO2 =
2017-05-24 18:55 METAR KJYO 242255Z AUTO 10004KT 10SM SCT014 SCT019 OVC026 17/16 A2971 RMK AO2 =
2017-05-24 18:35 METAR KJYO 242235Z AUTO 10006KT 7SM OVC014 17/16 A2971 RMK AO2 =
2017-05-24 18:15 METAR KJYO 242215Z AUTO 13006KT 10SM OVC016 17/15 A2971 RMK AO2 =
2017-05-24 17:55 METAR KJYO 242155Z AUTO 14007G15KT 10SM OVC018 18/15 A2973 RMK AO2 =
2017-05-24 17:35 METAR KJYO 242135Z AUTO 14010G14KT 10SM OVC018 18/15 A2973 RMK AO2 =
2017-05-24 17:15 METAR KJYO 242115Z AUTO 15010G14KT 10SM OVC018 18/15 A2973 RMK AO2 =
2017-05-24 16:55 METAR KJYO 242055Z AUTO 13008KT 10SM OVC016 17/15 A2972 RMK AO2 =
2017-05-24 16:35 METAR KJYO 242035Z AUTO 12010G14KT 10SM OVC014 17/15 A2973 RMK AO2 LTG DSNT SW =
2017-05-24 16:15 METAR KJYO 242015Z AUTO 14009G15KT 10SM OVC016 17/15 A2974 RMK AO2 =
2017-05-24 15:55 METAR KJYO 241955Z AUTO 14009KT 10SM OVC018 18/15 A2974 RMK AO2 =
2017-05-24 15:35 METAR KJYO 241935Z AUTO 14006G09KT 10SM OVC018 18/15 A2974 RMK AO2 =
2017-05-24 15:15 METAR KJYO 241915Z AUTO 13006KT 10SM OVC022 18/15 A2975 RMK AO2 =
2017-05-24 14:55 METAR KJYO 241855Z AUTO 12008KT 10SM OVC022 18/15 A2974 RMK AO2 =
2017-05-24 14:35 METAR KJYO 241835Z AUTO 13007KT 10SM OVC024 18/15 A2974 RMK AO2 =
2017-05-24 14:15 METAR KJYO 241815Z AUTO 12009KT 10SM OVC024 18/15 A2972 RMK AO2 =
2017-05-24 13:55 METAR KJYO 241755Z AUTO 14006KT 10SM OVC026 18/14 A2974 RMK AO2 =
2017-05-24 13:35 METAR KJYO 241735Z AUTO 12010KT 10SM OVC030 18/14 A2974 RMK AO2 =
2017-05-24 13:15 METAR KJYO 241715Z AUTO 13008KT 10SM SCT026 OVC032 18/14 A2974 RMK AO2 =
2017-05-24 12:55 METAR KJYO 241655Z AUTO 15007KT 10SM BKN026 BKN032 OVC040 18/14 A2974 RMK AO2 =
2017-05-24 12:35 METAR KJYO 241635Z AUTO 12006KT 10SM SCT025 SCT031 OVC040 18/14 A2975 RMK AO2 =
2017-05-24 12:15 METAR KJYO 241615Z AUTO 15007KT 10SM SCT023 SCT028 OVC040 18/13 A2976 RMK AO2 =
2017-05-24 11:55 METAR KJYO 241555Z AUTO 16007KT 10SM BKN020 OVC025 18/15 A2975 RMK AO2 =
2017-05-24 11:35 METAR KJYO 241535Z AUTO 12005KT 10SM OVC020 18/15 A2975 RMK AO2 =
2017-05-24 11:15 METAR KJYO 241515Z AUTO 14003KT 10SM BKN018 BKN022 OVC050 18/15 A2975 RMK AO2 =
2017-05-24 10:55 METAR KJYO 241455Z AUTO 13006KT 10SM BKN018 BKN022 OVC050 18/15 A2975 RMK AO2 =
2017-05-24 10:35 METAR KJYO 241435Z AUTO 07003KT 10SM SCT014 BKN018 OVC060 17/15 A2974 RMK AO2 =
2017-05-24 10:15 METAR KJYO 241415Z AUTO 00000KT 10SM BKN011 BKN016 OVC060 17/15 A2975 RMK AO2 =
2017-05-24 09:55 METAR KJYO 241355Z AUTO 12003KT 10SM BKN011 OVC017 16/16 A2975 RMK AO2 =
2017-05-24 09:35 METAR KJYO 241335Z AUTO 11005KT 10SM BKN009 OVC017 16/16 A2976 RMK AO2 =
2017-05-24 09:15 METAR KJYO 241315Z AUTO 08004KT 7SM BKN007 OVC013 16/16 A2975 RMK AO2 =
2017-05-24 08:55 METAR KJYO 241255Z AUTO 00000KT 5SM BR OVC009 15/15 A2975 RMK AO2 LTG DSNT S =
2017-05-24 08:35 METAR KJYO 241235Z AUTO 06004KT 5SM BR OVC007 15/15 A2975 RMK AO2 =

Support USWX by starting your Amazon purchase here.